createdAt,value
2022-10-11T00:01:09.107Z,100.00
2022-10-11T00:06:10.772Z,100.00
2022-10-11T00:11:12.197Z,100.00
2022-10-11T00:16:15.305Z,100.00
2022-10-11T00:21:16.814Z,100.00
2022-10-11T00:26:18.323Z,100.00
2022-10-11T00:31:22.308Z,100.00
2022-10-11T00:36:23.765Z,100.00
2022-10-11T00:41:25.265Z,100.00
2022-10-11T00:46:29.958Z,100.00
2022-10-11T00:51:34.124Z,100.00
2022-10-11T00:56:38.722Z,100.00
2022-10-11T01:01:40.157Z,100.00
2022-10-11T01:06:42.108Z,100.00
2022-10-11T01:11:44.497Z,100.00
2022-10-11T01:16:57.601Z,100.00
2022-10-11T01:22:20.286Z,100.00
2022-10-11T01:27:42.061Z,100.00
2022-10-11T01:32:57.144Z,100.00
2022-10-11T01:38:04.252Z,100.00
2022-10-11T01:43:06.122Z,100.00
2022-10-11T01:48:10.774Z,100.00
2022-10-11T01:53:14.920Z,100.00
2022-10-11T01:58:42.389Z,100.00
2022-10-11T02:03:59.165Z,100.00
2022-10-11T02:09:32.166Z,100.00
2022-10-11T02:14:40.282Z,100.00
2022-10-11T02:19:46.972Z,100.00
2022-10-11T02:24:52.655Z,100.00
2022-10-11T02:29:55.981Z,100.00
2022-10-11T02:35:00.420Z,100.00
2022-10-11T02:40:19.943Z,100.00
2022-10-11T02:45:31.560Z,100.00
2022-10-11T02:50:33.328Z,100.00
2022-10-11T02:55:35.340Z,100.00
2022-10-11T03:00:36.795Z,100.00
2022-10-11T03:05:41.442Z,100.00
2022-10-11T03:10:43.024Z,100.00
2022-10-11T03:15:49.363Z,100.00
2022-10-11T03:20:50.838Z,100.00
2022-10-11T03:25:52.392Z,100.00
2022-10-11T03:30:53.956Z,100.00
2022-10-11T03:35:55.365Z,100.00
2022-10-11T03:40:57.036Z,100.00
2022-10-11T03:45:58.461Z,100.00
2022-10-11T03:51:00.014Z,100.00
2022-10-11T03:56:05.908Z,100.00
2022-10-11T04:01:09.767Z,100.00
2022-10-11T04:06:11.392Z,100.00
2022-10-11T04:11:12.881Z,100.00
2022-10-11T04:16:14.571Z,100.00
2022-10-11T04:21:16.030Z,100.00
2022-10-11T04:26:17.464Z,100.00
2022-10-11T04:31:18.889Z,100.00
2022-10-11T04:36:20.328Z,100.00
2022-10-11T04:41:21.880Z,100.00
2022-10-11T04:46:23.679Z,100.00
2022-10-11T04:51:25.807Z,100.00
2022-10-11T04:56:27.356Z,100.00
2022-10-11T05:01:29.156Z,100.00
2022-10-11T05:06:30.652Z,100.00
2022-10-11T05:11:32.077Z,100.00
2022-10-11T05:16:33.549Z,100.00
2022-10-11T05:21:34.949Z,100.00
2022-10-11T05:26:36.384Z,100.00
2022-10-11T05:31:37.886Z,100.00
2022-10-11T05:36:39.408Z,100.00
2022-10-11T05:41:40.854Z,100.00
2022-10-11T05:46:42.450Z,100.00
2022-10-11T05:51:43.913Z,100.00
2022-10-11T05:56:45.381Z,100.00
2022-10-11T06:01:46.931Z,100.00
2022-10-11T06:06:48.431Z,100.00
2022-10-11T06:11:50.061Z,100.00
2022-10-11T06:16:51.792Z,100.00
2022-10-11T06:21:53.199Z,100.00
2022-10-11T06:26:55.548Z,100.00
2022-10-11T06:31:58.341Z,100.00
2022-10-11T06:36:59.836Z,100.00
2022-10-11T06:42:01.502Z,100.00
2022-10-11T06:47:02.946Z,100.00
2022-10-11T06:52:05.021Z,100.00
2022-10-11T06:57:06.458Z,100.00
2022-10-11T07:02:08.687Z,100.00
2022-10-11T07:07:13.481Z,100.00
2022-10-11T07:12:16.146Z,100.00
2022-10-11T07:17:17.609Z,100.00
2022-10-11T07:22:19.023Z,100.00
2022-10-11T07:27:23.141Z,100.00
2022-10-11T07:32:24.584Z,100.00
2022-10-11T07:37:26.021Z,100.00
2022-10-11T07:42:27.424Z,100.00
2022-10-11T07:47:28.952Z,100.00
2022-10-11T07:52:30.391Z,100.00
2022-10-11T07:57:31.817Z,100.00
2022-10-11T08:02:33.301Z,100.00
2022-10-11T08:07:35.026Z,100.00
2022-10-11T08:12:36.440Z,100.00
2022-10-11T08:17:37.966Z,100.00
2022-10-11T08:22:39.840Z,100.00
2022-10-11T08:27:41.272Z,100.00
2022-10-11T08:32:42.828Z,100.00
2022-10-11T08:37:44.261Z,100.00
2022-10-11T08:42:53.992Z,100.00
2022-10-11T08:48:12.706Z,100.00
2022-10-11T08:53:28.284Z,100.00
2022-10-11T08:59:00.808Z,94.72
2022-10-11T09:04:03.578Z,99.53
2022-10-11T09:09:14.093Z,98.42
2022-10-11T09:14:39.110Z,98.47
2022-10-11T09:19:53.820Z,98.12
2022-10-11T09:25:21.609Z,99.26
2022-10-11T09:30:23.189Z,95.27
2022-10-11T09:35:25.394Z,94.10
2022-10-11T09:41:00.584Z,94.72
2022-10-11T09:46:02.714Z,87.53
2022-10-11T09:51:24.188Z,90.37
2022-10-11T09:56:28.602Z,85.37
2022-10-11T10:01:31.381Z,78.93
2022-10-11T10:06:33.672Z,76.46
2022-10-11T10:11:38.164Z,84.17
2022-10-11T10:16:39.822Z,91.01
2022-10-11T10:21:48.029Z,96.15
2022-10-11T10:27:14.349Z,72.78
2022-10-11T10:32:23.367Z,66.26
2022-10-11T10:37:26.165Z,61.32
2022-10-11T10:42:28.144Z,56.01
2022-10-11T10:47:51.040Z,57.51
2022-10-11T10:53:05.958Z,66.88
2022-10-11T10:58:22.851Z,68.22
2022-10-11T11:03:35.553Z,69.41
2022-10-11T11:08:56.025Z,60.32
2022-10-11T11:14:09.313Z,56.80
2022-10-11T11:19:25.219Z,54.39
2022-10-11T11:24:38.978Z,46.08
2022-10-11T11:29:55.406Z,46.81
2022-10-11T11:35:03.704Z,40.50
2022-10-11T11:40:14.880Z,49.12
2022-10-11T11:45:26.052Z,54.78
2022-10-11T11:50:34.625Z,56.41
2022-10-11T11:56:07.224Z,57.94
2022-10-11T12:01:31.542Z,46.76
2022-10-11T12:06:37.863Z,54.79
2022-10-11T12:12:06.778Z,52.54
2022-10-11T12:17:18.273Z,57.39
2022-10-11T12:22:28.867Z,48.72
2022-10-11T12:27:41.046Z,42.37
2022-10-11T12:32:42.960Z,41.53
2022-10-11T12:37:50.887Z,39.15
2022-10-11T12:43:12.059Z,40.52
2022-10-11T12:48:41.277Z,46.93
2022-10-11T12:54:25.538Z,47.78
2022-10-11T12:59:24.298Z,42.30
2022-10-11T13:04:32.207Z,44.91
2022-10-11T13:09:39.091Z,48.47
2022-10-11T13:14:47.600Z,42.02
2022-10-11T13:19:59.465Z,41.40
2022-10-11T13:25:05.078Z,41.03
2022-10-11T13:30:12.962Z,41.70
2022-10-11T13:35:24.904Z,42.02
2022-10-11T13:40:27.375Z,43.62
2022-10-11T13:45:30.779Z,43.63
2022-10-11T13:50:34.247Z,45.83
2022-10-11T13:55:51.206Z,48.58
2022-10-11T14:00:56.142Z,48.79
2022-10-11T14:05:59.401Z,48.19
2022-10-11T14:11:06.065Z,50.10
2022-10-11T14:16:13.992Z,54.18
2022-10-11T14:21:33.708Z,55.80
2022-10-11T14:26:42.089Z,59.06
2022-10-11T14:31:44.880Z,61.08
2022-10-11T14:36:47.100Z,65.38
2022-10-11T14:41:49.800Z,67.02
2022-10-11T14:46:54.507Z,68.95
2022-10-11T14:51:58.869Z,67.58
2022-10-11T14:57:02.632Z,63.58
2022-10-11T15:02:06.344Z,60.66
2022-10-11T15:07:07.902Z,61.41
2022-10-11T15:12:09.411Z,64.86
2022-10-11T15:17:12.452Z,66.58
2022-10-11T15:22:13.937Z,67.83
2022-10-11T15:27:17.317Z,68.74
2022-10-11T15:32:18.787Z,70.87
2022-10-11T15:37:20.250Z,73.13
2022-10-11T15:42:21.695Z,73.86
2022-10-11T15:47:23.427Z,72.62
2022-10-11T15:52:25.057Z,73.76
2022-10-11T15:57:26.689Z,75.65
2022-10-11T16:02:28.695Z,79.69
2022-10-11T16:07:30.245Z,84.04
2022-10-11T16:12:31.743Z,86.98
2022-10-11T16:17:33.316Z,89.80
2022-10-11T16:22:35.184Z,92.56
2022-10-11T16:27:36.959Z,95.69
2022-10-11T16:32:39.366Z,99.03
2022-10-11T16:37:40.807Z,100.00
2022-10-11T16:42:42.284Z,100.00
2022-10-11T16:47:44.218Z,100.00
2022-10-11T16:52:45.725Z,100.00
2022-10-11T16:57:47.236Z,100.00
2022-10-11T17:02:48.653Z,100.00
2022-10-11T17:07:50.209Z,100.00
2022-10-11T17:12:55.041Z,100.00
2022-10-11T17:17:56.606Z,100.00
2022-10-11T17:22:58.299Z,100.00
2022-10-11T17:27:59.746Z,100.00
2022-10-11T17:33:01.251Z,100.00
2022-10-11T17:38:06.207Z,100.00
2022-10-11T17:43:08.035Z,100.00
2022-10-11T17:48:09.452Z,100.00
2022-10-11T17:53:10.868Z,100.00
2022-10-11T17:58:12.878Z,100.00
2022-10-11T18:03:14.315Z,100.00
2022-10-11T18:08:15.777Z,100.00
2022-10-11T18:13:17.693Z,100.00
2022-10-11T18:18:19.264Z,100.00
2022-10-11T18:23:20.755Z,100.00
2022-10-11T18:28:22.521Z,100.00
2022-10-11T18:33:24.108Z,100.00
2022-10-11T18:38:25.557Z,100.00
2022-10-11T18:43:26.964Z,100.00
2022-10-11T18:48:28.470Z,100.00
2022-10-11T18:53:30.223Z,100.00
2022-10-11T18:58:33.582Z,100.00
2022-10-11T19:03:35.748Z,100.00
2022-10-11T19:08:37.191Z,100.00
2022-10-11T19:13:39.477Z,100.00
2022-10-11T19:18:44.281Z,100.00
2022-10-11T19:23:47.367Z,100.00
2022-10-11T19:28:54.854Z,100.00
2022-10-11T19:33:56.968Z,100.00
2022-10-11T19:38:58.489Z,100.00
2022-10-11T19:43:59.967Z,100.00
2022-10-11T19:49:04.318Z,100.00
2022-10-11T19:54:08.540Z,100.00
2022-10-11T19:59:11.142Z,100.00
2022-10-11T20:04:33.163Z,100.00
2022-10-11T20:09:34.243Z,100.00
2022-10-11T20:14:35.846Z,100.00
2022-10-11T20:19:37.374Z,100.00
2022-10-11T20:24:38.825Z,100.00
2022-10-11T20:29:40.449Z,100.00
2022-10-11T20:34:41.864Z,100.00
2022-10-11T20:39:43.268Z,100.00
2022-10-11T20:44:44.788Z,100.00
2022-10-11T20:49:46.269Z,100.00
2022-10-11T20:54:47.759Z,100.00
2022-10-11T20:59:49.297Z,100.00
2022-10-11T21:04:51.417Z,100.00
2022-10-11T21:09:52.888Z,100.00
2022-10-11T21:14:54.365Z,100.00
2022-10-11T21:19:55.780Z,100.00
2022-10-11T21:24:57.284Z,100.00
2022-10-11T21:29:58.725Z,100.00
2022-10-11T21:35:00.151Z,100.00
2022-10-11T21:40:01.592Z,100.00
2022-10-11T21:45:03.783Z,100.00
2022-10-11T21:50:05.864Z,100.00
2022-10-11T21:55:07.460Z,100.00
2022-10-11T22:00:09.854Z,100.00
2022-10-11T22:05:11.316Z,100.00
2022-10-11T22:10:12.860Z,100.00
2022-10-11T22:15:14.343Z,100.00
2022-10-11T22:20:15.893Z,100.00
2022-10-11T22:25:17.355Z,100.00
2022-10-11T22:30:18.760Z,100.00
2022-10-11T22:35:20.252Z,100.00
2022-10-11T22:40:21.722Z,100.00
2022-10-11T22:45:23.175Z,100.00
2022-10-11T22:50:24.617Z,100.00
2022-10-11T22:55:26.160Z,100.00
2022-10-11T23:00:27.739Z,100.00
2022-10-11T23:05:29.364Z,100.00
2022-10-11T23:10:31.105Z,100.00
2022-10-11T23:15:32.545Z,100.00
2022-10-11T23:20:34.019Z,100.00
2022-10-11T23:25:35.492Z,100.00
2022-10-11T23:30:39.229Z,100.00
2022-10-11T23:35:40.632Z,100.00
2022-10-11T23:40:42.641Z,100.00
2022-10-11T23:45:45.069Z,100.00
2022-10-11T23:50:46.498Z,100.00
2022-10-11T23:55:47.917Z,100.00
